createdAt,value
2018-02-09T00:01:00.453Z,83.22
2018-02-09T00:03:30.071Z,103.47
2018-02-09T00:05:58.948Z,100.43
2018-02-09T00:08:27.176Z,83.45
2018-02-09T00:10:56.211Z,86.87
2018-02-09T00:13:25.792Z,81.60
2018-02-09T00:15:54.311Z,77.82
2018-02-09T00:18:22.594Z,77.22
2018-02-09T00:20:50.837Z,96.37
2018-02-09T00:23:19.082Z,104.45
2018-02-09T00:25:47.359Z,85.10
2018-02-09T00:28:15.632Z,80.30
2018-02-09T00:30:43.826Z,78.95
2018-02-09T00:33:12.098Z,80.75
2018-02-09T00:35:40.338Z,83.82
2018-02-09T00:38:09.716Z,88.80
2018-02-09T00:40:38.002Z,92.05
2018-02-09T00:43:07.605Z,92.68
2018-02-09T00:45:36.476Z,86.93
2018-02-09T00:48:04.751Z,86.05
2018-02-09T00:50:34.116Z,86.47
2018-02-09T00:53:02.344Z,83.57
2018-02-09T00:55:31.367Z,75.03
2018-02-09T00:58:00.368Z,77.78
2018-02-09T01:00:28.606Z,95.53
2018-02-09T01:02:56.872Z,91.75
2018-02-09T01:05:25.126Z,80.87
2018-02-09T01:07:54.868Z,74.82
2018-02-09T01:10:24.506Z,92.20
2018-02-09T01:12:53.026Z,82.10
2018-02-09T01:15:21.271Z,84.82
2018-02-09T01:17:49.570Z,80.93
2018-02-09T01:20:17.824Z,88.15
2018-02-09T01:22:47.387Z,84.30
2018-02-09T01:25:16.315Z,101.32
2018-02-09T01:27:44.556Z,109.25
2018-02-09T01:30:14.144Z,100.57
2018-02-09T01:32:43.048Z,93.03
2018-02-09T01:35:12.044Z,83.45
2018-02-09T01:37:40.272Z,87.55
2018-02-09T01:40:08.576Z,95.57
2018-02-09T01:42:38.156Z,100.65
2018-02-09T01:45:06.259Z,91.43
2018-02-09T01:47:34.551Z,96.10
2018-02-09T01:50:09.997Z,84.10
2018-02-09T01:52:38.905Z,78.68
2018-02-09T01:55:07.131Z,85.40
2018-02-09T01:57:36.128Z,85.00
2018-02-09T02:00:05.542Z,95.25
2018-02-09T02:02:33.782Z,90.85
2018-02-09T02:05:03.362Z,85.25
2018-02-09T02:07:32.286Z,87.75
2018-02-09T02:10:01.864Z,95.70
2018-02-09T02:12:31.324Z,92.95
2018-02-09T02:14:59.891Z,105.60
2018-02-09T02:17:28.148Z,116.60
2018-02-09T02:19:56.375Z,92.03
2018-02-09T02:22:26.165Z,102.38
2018-02-09T02:24:54.405Z,108.68
2018-02-09T02:27:22.677Z,110.57
2018-02-09T02:29:52.452Z,87.60
2018-02-09T02:32:20.699Z,92.55
2018-02-09T02:34:48.945Z,83.75
2018-02-09T02:37:18.215Z,86.22
2018-02-09T02:39:47.210Z,80.97
2018-02-09T02:42:15.440Z,91.37
2018-02-09T02:44:44.482Z,108.97
2018-02-09T02:47:13.849Z,83.30
2018-02-09T02:49:42.072Z,89.28
2018-02-09T02:52:11.492Z,71.72
2018-02-09T02:54:40.488Z,82.25
2018-02-09T02:57:08.733Z,83.65
2018-02-09T02:59:37.773Z,84.37
2018-02-09T03:02:06.000Z,83.32
2018-02-09T03:04:34.223Z,82.50
2018-02-09T03:07:02.885Z,79.30
2018-02-09T03:09:32.251Z,90.50
2018-02-09T03:12:00.480Z,83.78
2018-02-09T03:14:29.139Z,83.62
2018-02-09T03:16:57.372Z,91.93
2018-02-09T03:19:25.604Z,96.12
2018-02-09T03:21:55.227Z,93.55
2018-02-09T03:24:23.742Z,85.72
2018-02-09T03:26:53.498Z,102.32
2018-02-09T03:29:21.805Z,91.90
2018-02-09T03:31:50.051Z,81.15
2018-02-09T03:34:18.282Z,80.82
2018-02-09T03:36:47.922Z,86.30
2018-02-09T03:39:17.656Z,79.37
2018-02-09T03:41:47.257Z,79.18
2018-02-09T03:44:15.800Z,85.45
2018-02-09T03:46:44.032Z,88.93
2018-02-09T03:49:12.274Z,79.80
2018-02-09T03:51:40.556Z,97.20
2018-02-09T03:54:08.804Z,80.28
2018-02-09T03:56:37.036Z,75.12
2018-02-09T03:59:05.295Z,75.20
2018-02-09T04:01:34.667Z,82.85
2018-02-09T04:04:02.895Z,82.43
2018-02-09T04:06:31.564Z,79.40
2018-02-09T04:08:59.796Z,71.72
2018-02-09T04:11:28.023Z,82.43
2018-02-09T04:13:56.289Z,74.57
2018-02-09T04:16:25.280Z,79.45
2018-02-09T04:18:53.532Z,76.20
2018-02-09T04:21:23.162Z,71.18
2018-02-09T04:23:51.688Z,81.63
2018-02-09T04:26:21.281Z,81.90
2018-02-09T04:28:50.788Z,79.85
2018-02-09T04:31:20.285Z,91.25
2018-02-09T04:33:48.384Z,85.22
2018-02-09T04:36:18.421Z,83.62
2018-02-09T04:38:46.634Z,79.80
2018-02-09T04:41:15.624Z,75.12
2018-02-09T04:43:45.426Z,76.65
2018-02-09T04:46:15.021Z,71.43
2018-02-09T04:48:43.546Z,83.03
2018-02-09T04:51:13.287Z,82.35
2018-02-09T04:53:41.530Z,83.90
2018-02-09T04:56:09.772Z,81.63
2018-02-09T04:58:38.324Z,96.43
2018-02-09T05:01:07.330Z,81.32
2018-02-09T05:03:35.556Z,78.68
2018-02-09T05:06:03.835Z,80.47
2018-02-09T05:08:33.420Z,79.07
2018-02-09T05:11:01.523Z,73.65
2018-02-09T05:13:31.155Z,76.55
2018-02-09T05:16:00.025Z,75.85
2018-02-09T05:18:28.282Z,71.32
2018-02-09T05:20:56.569Z,82.37
2018-02-09T05:23:24.814Z,83.57
2018-02-09T05:25:53.053Z,77.18
2018-02-09T05:28:21.331Z,91.72
2018-02-09T05:30:49.564Z,70.57
2018-02-09T05:33:19.300Z,70.87
2018-02-09T05:35:50.283Z,90.47
2018-02-09T05:38:18.794Z,79.07
2018-02-09T05:40:48.931Z,79.10
2018-02-09T05:43:17.196Z,78.60
2018-02-09T05:45:45.429Z,81.53
2018-02-09T05:48:13.674Z,73.12
2018-02-09T05:50:41.954Z,77.18
2018-02-09T05:53:11.688Z,72.10
2018-02-09T05:55:41.267Z,78.70
2018-02-09T05:58:09.805Z,79.15
2018-02-09T06:00:38.031Z,78.60
2018-02-09T06:03:07.619Z,85.47
2018-02-09T06:05:36.896Z,74.60
2018-02-09T06:08:06.484Z,74.28
2018-02-09T06:10:34.979Z,77.12
2018-02-09T06:13:04.430Z,76.62
2018-02-09T06:15:33.789Z,84.55
2018-02-09T06:18:03.520Z,80.25
2018-02-09T06:20:33.064Z,82.60
2018-02-09T06:23:02.788Z,86.82
2018-02-09T06:25:32.255Z,74.85
2018-02-09T06:28:01.314Z,87.40
2018-02-09T06:30:29.559Z,93.70
2018-02-09T06:32:57.961Z,85.10
2018-02-09T06:35:27.583Z,86.57
2018-02-09T06:37:57.084Z,70.43
2018-02-09T06:40:25.969Z,78.78
2018-02-09T06:42:54.808Z,83.30
2018-02-09T06:45:24.163Z,76.93
2018-02-09T06:47:53.166Z,71.85
2018-02-09T06:50:22.796Z,71.03
2018-02-09T06:52:52.258Z,72.78
2018-02-09T06:55:21.132Z,80.07
2018-02-09T06:57:52.321Z,88.25
2018-02-09T07:00:21.914Z,70.07
2018-02-09T07:02:51.524Z,64.30
2018-02-09T07:05:19.783Z,67.28
2018-02-09T07:07:49.363Z,77.12
2018-02-09T07:10:18.996Z,77.15
2018-02-09T07:12:47.257Z,81.85
2018-02-09T07:15:15.500Z,80.68
2018-02-09T07:17:43.717Z,83.00
2018-02-09T07:20:17.137Z,77.82
2018-02-09T07:22:45.703Z,74.37
2018-02-09T07:25:14.699Z,80.20
2018-02-09T07:27:44.108Z,81.97
2018-02-09T07:30:13.688Z,83.43
2018-02-09T07:32:42.607Z,77.72
2018-02-09T07:35:12.236Z,78.28
2018-02-09T07:37:41.145Z,68.35
2018-02-09T07:40:10.376Z,85.90
2018-02-09T07:42:40.732Z,80.43
2018-02-09T07:45:10.303Z,92.50
2018-02-09T07:47:40.160Z,75.65
2018-02-09T07:50:08.820Z,77.25
2018-02-09T07:52:37.070Z,78.15
2018-02-09T07:55:05.311Z,77.90
2018-02-09T07:57:35.080Z,87.97
2018-02-09T08:00:04.659Z,80.87
2018-02-09T08:02:33.159Z,78.78
2018-02-09T08:05:01.570Z,87.35
2018-02-09T08:07:29.812Z,89.57
2018-02-09T08:09:58.051Z,83.95
2018-02-09T08:12:26.324Z,60.60
2018-02-09T08:14:55.944Z,69.80
2018-02-09T08:17:24.464Z,77.22
2018-02-09T08:19:54.090Z,101.82
2018-02-09T08:22:23.576Z,68.32
2018-02-09T08:24:53.071Z,81.12
2018-02-09T08:27:22.693Z,61.55
2018-02-09T08:29:50.822Z,60.15
2018-02-09T08:32:20.235Z,72.90
2018-02-09T08:34:49.280Z,74.32
2018-02-09T08:37:17.536Z,60.78
2018-02-09T08:39:46.925Z,65.95
2018-02-09T08:42:15.952Z,58.40
2018-02-09T08:44:45.540Z,70.45
2018-02-09T08:47:13.667Z,66.28
2018-02-09T08:49:41.971Z,71.55
2018-02-09T08:52:11.573Z,76.60
2018-02-09T08:54:41.027Z,63.60
2018-02-09T08:57:10.308Z,52.75
2018-02-09T08:59:38.541Z,68.05
2018-02-09T09:02:06.772Z,67.30
2018-02-09T09:04:36.175Z,68.37
2018-02-09T09:07:05.183Z,75.47
2018-02-09T09:09:33.438Z,72.60
2018-02-09T09:12:02.463Z,58.93
2018-02-09T09:14:30.696Z,142.43
2018-02-09T09:16:58.948Z,75.93
2018-02-09T09:19:28.753Z,70.60
2018-02-09T09:21:57.005Z,48.30
2018-02-09T09:24:25.262Z,64.87
2018-02-09T09:26:53.985Z,61.23
2018-02-09T09:29:23.789Z,65.80
2018-02-09T09:31:52.147Z,59.77
2018-02-09T09:34:20.416Z,57.63
2018-02-09T09:36:48.628Z,59.77
2018-02-09T09:39:18.375Z,72.10
2018-02-09T09:41:48.017Z,67.20
2018-02-09T09:44:17.486Z,64.53
2018-02-09T09:46:46.019Z,61.00
2018-02-09T09:49:15.272Z,64.73
2018-02-09T09:51:44.860Z,69.07
2018-02-09T09:54:14.341Z,70.87
2018-02-09T09:56:42.941Z,56.53
2018-02-09T09:59:12.675Z,68.20
2018-02-09T10:01:42.274Z,66.80
2018-02-09T10:04:11.557Z,56.90
2018-02-09T10:06:39.792Z,55.17
2018-02-09T10:09:08.020Z,60.90
2018-02-09T10:11:36.284Z,66.50
2018-02-09T10:14:05.651Z,63.63
2018-02-09T10:16:33.888Z,100.33
2018-02-09T10:19:02.380Z,72.23
2018-02-09T10:21:32.134Z,67.77
2018-02-09T10:24:01.766Z,72.80
2018-02-09T10:26:30.640Z,73.20
2018-02-09T10:28:58.886Z,56.70
2018-02-09T10:31:28.549Z,62.03
2018-02-09T10:33:58.028Z,74.30
2018-02-09T10:36:27.510Z,68.57
2018-02-09T10:38:56.438Z,80.03
2018-02-09T10:41:24.677Z,65.90
2018-02-09T10:43:54.434Z,81.77
2018-02-09T10:46:22.692Z,65.53
2018-02-09T10:48:50.921Z,61.70
2018-02-09T10:51:19.155Z,61.70
2018-02-09T10:53:47.420Z,65.23
2018-02-09T10:56:17.018Z,63.00
2018-02-09T10:58:45.895Z,69.43
2018-02-09T11:01:19.896Z,70.10
2018-02-09T11:03:49.480Z,62.87
2018-02-09T11:06:18.347Z,64.50
2018-02-09T11:08:47.990Z,62.50
2018-02-09T11:11:17.459Z,63.90
2018-02-09T11:13:45.961Z,65.83
2018-02-09T11:16:14.228Z,77.70
2018-02-09T11:18:42.464Z,68.20
2018-02-09T11:21:10.700Z,64.30
2018-02-09T11:23:40.476Z,70.43
2018-02-09T11:26:08.707Z,65.47
2018-02-09T11:28:36.953Z,71.40
2018-02-09T11:31:06.754Z,68.67
2018-02-09T11:33:35.390Z,73.60
2018-02-09T11:36:04.016Z,74.17
2018-02-09T11:38:33.649Z,71.27
2018-02-09T11:41:01.762Z,71.23
2018-02-09T11:43:30.013Z,66.83
2018-02-09T11:45:58.292Z,71.63
2018-02-09T11:48:26.531Z,77.23
2018-02-09T11:50:56.128Z,67.10
2018-02-09T11:53:25.777Z,60.80
2018-02-09T11:55:54.008Z,60.37
2018-02-09T11:58:23.601Z,71.43
2018-02-09T12:00:52.651Z,69.47
2018-02-09T12:03:22.045Z,61.70
2018-02-09T12:05:50.305Z,72.90
2018-02-09T12:08:18.599Z,71.90
2018-02-09T12:10:48.381Z,63.07
2018-02-09T12:13:17.015Z,60.70
2018-02-09T12:15:45.296Z,61.87
2018-02-09T12:18:13.547Z,57.30
2018-02-09T12:20:43.294Z,73.23
2018-02-09T12:23:12.913Z,68.20
2018-02-09T12:25:41.028Z,65.40
2018-02-09T12:28:10.622Z,69.20
2018-02-09T12:30:40.296Z,87.57
2018-02-09T12:33:09.891Z,59.13
2018-02-09T12:35:39.512Z,62.73
2018-02-09T12:38:09.195Z,72.73
2018-02-09T12:40:38.020Z,62.27
2018-02-09T12:43:07.626Z,62.60
2018-02-09T12:45:36.168Z,61.23
2018-02-09T12:48:04.404Z,69.97
2018-02-09T12:50:32.644Z,57.83
2018-02-09T12:53:00.950Z,59.10
2018-02-09T12:55:29.180Z,74.07
2018-02-09T12:57:57.412Z,62.77
2018-02-09T13:00:25.696Z,57.13
2018-02-09T13:02:55.436Z,54.17
2018-02-09T13:05:23.676Z,57.23
2018-02-09T13:07:53.304Z,55.63
2018-02-09T13:10:22.793Z,61.73
2018-02-09T13:13:04.260Z,66.17
2018-02-09T13:15:33.843Z,55.23
2018-02-09T13:18:03.461Z,60.83
2018-02-09T13:20:31.728Z,62.73
2018-02-09T13:23:11.636Z,72.17
2018-02-09T13:25:41.262Z,52.10
2018-02-09T13:28:22.014Z,60.60
2018-02-09T13:30:50.304Z,54.70
2018-02-09T13:33:27.479Z,64.90
2018-02-09T13:35:56.528Z,53.03
2018-02-09T13:38:24.768Z,60.87
2018-02-09T13:40:54.350Z,64.10
2018-02-09T13:43:23.276Z,64.10
2018-02-09T13:45:52.877Z,61.33
2018-02-09T13:48:21.409Z,55.47
2018-02-09T13:50:49.688Z,55.83
2018-02-09T13:53:17.937Z,57.03
2018-02-09T13:55:46.167Z,58.87
2018-02-09T13:58:15.790Z,63.30
2018-02-09T14:00:45.294Z,58.83
2018-02-09T14:03:15.766Z,82.10
2018-02-09T14:05:45.391Z,65.83
2018-02-09T14:08:14.872Z,50.70
2018-02-09T14:10:44.116Z,61.20
2018-02-09T14:13:12.384Z,64.03
2018-02-09T14:15:40.617Z,66.23
2018-02-09T14:18:10.211Z,71.37
2018-02-09T14:20:39.126Z,50.87
2018-02-09T14:23:07.355Z,52.70
2018-02-09T14:25:35.594Z,54.77
2018-02-09T14:28:05.594Z,57.37
2018-02-09T14:30:33.696Z,52.20
2018-02-09T14:33:03.279Z,56.73
2018-02-09T14:35:32.799Z,57.53
2018-02-09T14:38:02.266Z,63.50
2018-02-09T14:40:31.136Z,56.90
2018-02-09T14:42:59.407Z,62.37
2018-02-09T14:45:27.635Z,57.33
2018-02-09T14:47:55.878Z,62.07
2018-02-09T14:50:24.190Z,61.33
2018-02-09T14:52:52.531Z,62.77
2018-02-09T14:55:21.912Z,59.47
2018-02-09T14:57:50.469Z,68.63
2018-02-09T15:00:20.058Z,64.03
2018-02-09T15:02:48.572Z,75.17
2018-02-09T15:05:17.298Z,73.73
2018-02-09T15:07:47.033Z,67.37
2018-02-09T15:10:15.255Z,67.20
2018-02-09T15:12:43.528Z,66.23
2018-02-09T15:15:13.134Z,61.00
2018-02-09T15:17:42.592Z,70.97
2018-02-09T15:20:11.148Z,71.50
2018-02-09T15:22:40.755Z,62.60
2018-02-09T15:25:09.326Z,53.55
2018-02-09T15:27:37.947Z,56.15
2018-02-09T15:30:07.688Z,53.63
2018-02-09T15:32:35.954Z,49.95
2018-02-09T15:35:05.878Z,52.20
2018-02-09T15:37:35.666Z,54.05
2018-02-09T15:40:03.862Z,46.35
2018-02-09T15:42:32.140Z,49.20
2018-02-09T15:45:01.138Z,45.22
2018-02-09T15:47:30.523Z,45.85
2018-02-09T15:49:59.179Z,43.35
2018-02-09T15:52:29.480Z,45.78
2018-02-09T15:54:57.582Z,44.03
2018-02-09T15:57:27.194Z,36.95
2018-02-09T15:59:55.696Z,41.78
2018-02-09T16:02:23.942Z,42.00
2018-02-09T16:04:54.872Z,44.15
2018-02-09T16:07:23.402Z,46.60
2018-02-09T16:09:51.643Z,43.95
2018-02-09T16:12:21.437Z,40.42
2018-02-09T16:14:49.675Z,32.90
2018-02-09T16:17:18.826Z,39.63
2018-02-09T16:19:48.442Z,35.70
2018-02-09T16:22:18.072Z,35.45
2018-02-09T16:24:47.226Z,38.42
2018-02-09T16:27:17.131Z,36.50
2018-02-09T16:29:46.496Z,32.00
2018-02-09T16:32:14.750Z,28.00
2018-02-09T16:34:44.363Z,27.95
2018-02-09T16:37:13.832Z,30.20
2018-02-09T16:39:43.439Z,37.00
2018-02-09T16:42:12.183Z,32.85
2018-02-09T16:44:40.812Z,44.67
2018-02-09T16:47:09.052Z,39.22
2018-02-09T16:49:37.341Z,33.25
2018-02-09T16:52:05.573Z,41.08
2018-02-09T16:54:35.314Z,37.35
2018-02-09T16:57:04.927Z,37.75
2018-02-09T16:59:33.434Z,32.45
2018-02-09T17:02:01.664Z,34.78
2018-02-09T17:04:30.695Z,32.53
2018-02-09T17:07:00.082Z,32.20
2018-02-09T17:09:28.360Z,34.72
2018-02-09T17:11:56.616Z,35.38
2018-02-09T17:14:25.273Z,47.50
2018-02-09T17:16:55.008Z,41.35
2018-02-09T17:19:23.299Z,48.10
2018-02-09T17:21:52.900Z,41.85
2018-02-09T17:24:22.359Z,35.80
2018-02-09T17:26:51.895Z,33.20
2018-02-09T17:29:20.772Z,26.67
2018-02-09T17:31:50.381Z,30.70
2018-02-09T17:34:20.066Z,22.80
2018-02-09T17:36:49.337Z,33.38
2018-02-09T17:39:17.596Z,41.35
2018-02-09T17:41:45.860Z,35.78
2018-02-09T17:44:15.614Z,46.30
2018-02-09T17:46:44.240Z,34.40
2018-02-09T17:49:15.109Z,26.33
2018-02-09T17:51:44.705Z,34.85
2018-02-09T17:54:12.812Z,35.35
2018-02-09T17:56:42.427Z,35.83
2018-02-09T17:59:10.932Z,33.97
2018-02-09T18:01:39.164Z,41.20
2018-02-09T18:04:08.812Z,32.42
2018-02-09T18:06:38.423Z,32.25
2018-02-09T18:09:08.033Z,44.72
2018-02-09T18:11:37.027Z,38.80
2018-02-09T18:14:05.218Z,36.58
2018-02-09T18:16:33.449Z,34.50
2018-02-09T18:19:03.338Z,32.90
2018-02-09T18:21:32.822Z,31.52
2018-02-09T18:24:02.052Z,26.62
2018-02-09T18:26:30.320Z,29.05
2018-02-09T18:28:58.552Z,31.73
2018-02-09T18:31:38.591Z,46.17
2018-02-09T18:34:08.237Z,40.03
2018-02-09T18:36:36.308Z,45.05
2018-02-09T18:39:04.606Z,39.65
2018-02-09T18:41:32.837Z,30.80
2018-02-09T18:44:01.090Z,68.05
2018-02-09T18:46:30.703Z,56.28
2018-02-09T18:49:00.338Z,41.37
2018-02-09T18:51:28.569Z,40.22
2018-02-09T18:53:56.836Z,34.35
2018-02-09T18:56:25.078Z,32.20
2018-02-09T18:58:53.320Z,29.05
2018-02-09T19:01:21.618Z,38.20
2018-02-09T19:03:50.996Z,40.92
2018-02-09T19:06:19.243Z,40.03
2018-02-09T19:08:48.891Z,31.20
2018-02-09T19:11:17.776Z,30.85
2018-02-09T19:13:46.011Z,46.60
2018-02-09T19:16:14.298Z,35.63
2018-02-09T19:18:42.528Z,29.77
2018-02-09T19:21:12.111Z,47.00
2018-02-09T19:23:41.332Z,30.35
2018-02-09T19:26:10.038Z,27.33
2018-02-09T19:28:38.404Z,26.77
2018-02-09T19:31:08.208Z,38.47
2018-02-09T19:33:36.316Z,35.50
2018-02-09T19:36:04.684Z,54.72
2018-02-09T19:38:34.439Z,32.53
2018-02-09T19:41:02.927Z,34.47
2018-02-09T19:43:32.575Z,33.53
2018-02-09T19:46:01.755Z,34.58
2018-02-09T19:48:29.988Z,41.67
2018-02-09T19:50:58.219Z,30.40
2018-02-09T19:53:27.627Z,39.42
2018-02-09T19:55:55.924Z,28.33
2018-02-09T19:58:24.166Z,27.42
2018-02-09T20:00:53.796Z,34.40
2018-02-09T20:03:23.260Z,34.25
2018-02-09T20:05:51.784Z,31.62
2018-02-09T20:08:20.371Z,32.08
2018-02-09T20:10:50.129Z,36.55
2018-02-09T20:13:19.788Z,36.40
2018-02-09T20:15:48.328Z,34.15
2018-02-09T20:18:17.948Z,28.50
2018-02-09T20:20:46.512Z,29.75
2018-02-09T20:23:14.746Z,36.20
2018-02-09T20:25:42.975Z,31.52
2018-02-09T20:28:12.595Z,28.80
2018-02-09T20:30:42.065Z,31.62
2018-02-09T20:33:11.307Z,36.38
2018-02-09T20:35:39.575Z,28.12
2018-02-09T20:38:09.173Z,39.13
2018-02-09T20:40:38.056Z,36.53
2018-02-09T20:43:06.337Z,27.55
2018-02-09T20:45:34.568Z,32.58
2018-02-09T20:48:02.810Z,29.98
2018-02-09T20:50:32.423Z,28.62
2018-02-09T20:53:01.883Z,34.97
2018-02-09T20:55:31.347Z,34.03
2018-02-09T20:58:00.860Z,29.65
2018-02-09T21:00:30.437Z,42.83
2018-02-09T21:02:58.570Z,29.92
2018-02-09T21:05:27.227Z,28.35
2018-02-09T21:07:56.981Z,49.97
2018-02-09T21:10:25.779Z,41.37
2018-02-09T21:12:55.180Z,36.88
2018-02-09T21:15:23.427Z,49.53
2018-02-09T21:17:52.080Z,44.72
2018-02-09T21:20:21.869Z,32.85
2018-02-09T21:22:50.147Z,40.53
2018-02-09T21:25:18.428Z,35.80
2018-02-09T21:27:48.054Z,28.27
2018-02-09T21:30:16.560Z,31.25
2018-02-09T21:32:46.155Z,28.05
2018-02-09T21:35:15.646Z,40.95
2018-02-09T21:37:44.166Z,30.90
2018-02-09T21:40:12.416Z,79.85
2018-02-09T21:42:42.183Z,34.70
2018-02-09T21:45:10.495Z,57.53
2018-02-09T21:47:38.926Z,30.58
2018-02-09T21:50:08.556Z,43.95
2018-02-09T21:52:37.432Z,44.28
2018-02-09T21:55:05.804Z,33.92
2018-02-09T21:57:35.427Z,36.97
2018-02-09T22:00:04.895Z,38.75
2018-02-09T22:02:33.812Z,36.58
2018-02-09T22:05:03.621Z,45.63
2018-02-09T22:07:33.273Z,34.65
2018-02-09T22:10:01.393Z,31.02
2018-02-09T22:12:30.461Z,36.75
2018-02-09T22:14:59.863Z,30.42
2018-02-09T22:17:28.102Z,39.08
2018-02-09T22:19:56.355Z,30.10
2018-02-09T22:22:26.110Z,30.88
2018-02-09T22:24:54.359Z,29.48
2018-02-09T22:27:24.081Z,30.70
2018-02-09T22:29:53.009Z,30.55
2018-02-09T22:32:21.343Z,32.80
2018-02-09T22:34:51.135Z,32.35
2018-02-09T22:37:19.276Z,32.97
2018-02-09T22:39:47.522Z,35.53
2018-02-09T22:42:15.798Z,32.25
2018-02-09T22:44:44.025Z,35.22
2018-02-09T22:47:13.836Z,30.17
2018-02-09T22:49:43.530Z,38.45
2018-02-09T22:52:13.016Z,34.45
2018-02-09T22:54:41.568Z,33.92
2018-02-09T22:57:11.579Z,39.92
2018-02-09T22:59:39.985Z,35.15
2018-02-09T23:02:08.247Z,29.35
2018-02-09T23:04:38.036Z,37.78
2018-02-09T23:07:06.297Z,35.38
2018-02-09T23:09:36.050Z,32.75
2018-02-09T23:12:04.315Z,29.77
2018-02-09T23:14:33.931Z,37.67
2018-02-09T23:17:02.439Z,33.08
2018-02-09T23:19:30.794Z,36.30
2018-02-09T23:21:59.028Z,35.38
2018-02-09T23:24:28.677Z,34.28
2018-02-09T23:26:57.652Z,38.10
2018-02-09T23:29:25.980Z,30.95
2018-02-09T23:31:55.200Z,28.52
2018-02-09T23:34:24.819Z,31.77
2018-02-09T23:36:54.431Z,29.63
2018-02-09T23:39:23.451Z,37.42
2018-02-09T23:41:51.722Z,26.05
2018-02-09T23:44:21.312Z,25.95
2018-02-09T23:46:50.388Z,27.45
2018-02-09T23:49:20.280Z,26.20
2018-02-09T23:51:48.513Z,29.95
2018-02-09T23:54:18.313Z,32.22
2018-02-09T23:56:47.360Z,31.35
2018-02-09T23:59:16.727Z,33.08
